Pagrindinis puslapis
METAR-TAF:

METAR-TAF

Oro uostai :

Neapolis, Italija

platuma: 40-51N, ilguma: 014-18E, Aukštis: 88 m

Dabartinis oras

Ataskaita buvo paskelbta 21 minutes, ne 18:20 UTC
Vėjas 5 kt iš Šiaurės, svyruoja nuo Vakarų/Šiaurės Vakarų ir Šiaurės/Šiaurės Rytų
Temperatūra 24°C
Drėgmė 57%
Slėgis 1016 hPa
Matomumas 10 km arba daugiau
Išsisklaidę debesys ne aukštis 3500 ft

METAR: LIRN 191820Z 36005KT 290V030 9999 SCT035 24/15 Q1016 TEMPO 4000 TSRA

Laikas: 20:41 (18:41 UTC)

Prognozė

Ataskaita buvo paskelbta 1 valandą ir 41 minutes, ne 17:00 UTC
Prognozė galioja nuo 19 metu 18 UTC su 20 metu 18 UTC
Vėjas 8 kt iš Rytų/Šiaurės Rytų
Matomumas 10 km arba daugiau
Išsisklaidę debesys ne aukštis 4000 ft
Laikinai
nuo 19 metu 18 UTC su 19 metu 21 UTC
perkūnija, lietus

TAF: LIRN 191700Z 1918/2018 07008KT 9999 SCT040 TEMPO 1918/1921 TSRA

Orai ataskaitas ir orų prognozės (METAR, TAF).

turimą stotys yra geltonos ir raudonos taškus žemėlapyje.

Perkelti pele per norėdami pamatyti stoties vardą.

Tada spustelėkite, norėdami matyti oro stebėjimo ir prognozės.

Norėdami pakeisti žemėlapį: spustelėkite ant žalios mygtukų su juodo kryžiaus žemyn,; žalią mygtuką su brūkšneliu, jei norite nutolinti; arba žalių rodyklių gretimoms žemėlapius.


METAR-TAF: